Sandpoint, ID (83864)

4:19 AM PDT on October 02, 2014 (GMT -0700)
KIDSANDP2 | Change Station
CLOSE
Current Station
Personal Weather Station
Location: Sandpoint, ID
Elevation: 2111 ft
Nearby Weather Stations

Elev 2111 ft 48.28 °N, 116.56 °W | Updated 9 seconds ago

Clear
Clear
41.6 °F
Feels Like 42 °F
N
0.0
Wind Variable Wind from West
Gusts 0.0 mph

Today
High -- | Low -- °F
--% Chance of Precip.
Yesterday
High -- | Low -- °F
Precip. -- in
6:47 AM 6:22 PM
First Quarter, 57% visible
Pressure 30.06 in
Visibility 10.0 miles
Clouds Clear
Windchill 42 °F
Dew Point 39 °F
Humidity 91%
Rainfall 0.00 in
Snow Depth 0 in , 0 in , 1 in
UV 0 out of 12
Pollen 5.60 out of 12
Air Quality Not available.
Flu Activity Not available.
METAR KSZT 021055Z AUTO 26003KT 10SM CLR 08/03 A3006 RMK AO2

More Conditions Fewer Conditions

Pressure 30.06 in
Visibility 10.0 miles
Clouds Clear
Windchill 42 °F
Dew Point 39 °F
Humidity 91%
Rainfall 0.00 in
Snow Depth 0 in , 0 in , 1 in
UV 0 out of 12
Pollen 5.60 out of 12
Air Quality Not available.
Flu Activity Not available.
METAR KSZT 021055Z AUTO 26003KT 10SM CLR 08/03 A3006 RMK AO2

More Conditions Fewer Conditions

10-Day Weather Forecast

Almanac

Astronomy

Oct. 02, 2014 Rise Set
Actual Time 6:47 AM PDT 6:22 PM PDT
Civil Twilight 6:15 AM PDT 6:54 PM PDT
Nautical Twilight 5:39 AM PDT 7:30 PM PDT
Astronomical Twilight 5:02 AM PDT 8:06 PM PDT
Moon 2:56 PM PDT No Moon Set
Length of Visible Light 12h 38m
Length of Day
11h 35m
Tomorrow will be 3m 30s shorter.
First Quarter, 57% of the Moon is Illuminated
Today
First Quarter
Oct 8
Full
Oct 15
Last Quarter
Oct 23
New
Oct 30
First Quarter

Today's Extremes

State Highs State Lows

Community

WunderPhotos

Upload Photos

1,758,216 photos uploaded!

WunderBlogs® & News

Nearby

Snow Depth

Station Depth Elevation
Hilts Creek 0 in 8000 ft
Schweitzer Basin 0 in 6090 ft
Hyndman 1 in 7440 ft
Savage Pass 1 in 6170 ft
Shanghi Summit 0 in 4570 ft

Earthquake Activity

City Distance Mag. Time & Date
No recent earthquake activity has been reported nearby.
Minimum magnitude displayed is 2.5.

Coastal Water Temperatures

Place Temperature
No Stations Reporting

Nearby Weather Stations